Jiddah, Saudi Arabia
Current Conditions -  °F | °C
As of 7:00 PM on Wednesday 28 Jan 2015 (Local Time) from OEJN Reporting Station
Few Clouds Few Clouds  
Wind Chill: 81°   Ceiling: Unl
Heat Index: 83°   Visibility: 6mi
Dew Point: 68°   Wind: 14mph
Humidity: 65%   Direction: 180°S
Pressure: 29.83"   Gusts: NA
Location:  21.5°N, 39.17°E
Report Text: OEJN 281600Z 18012KT 9999 FEW040 27/20 Q1010 NOSIG
Loading
Personal Weather Stations






























Interactive Weather Map New forecast layout! Learn more

10-Day Weather Forecast

Advertisements
Track Severe Weather on mobile